sensor_id;sensor_type;location;lat;lon;timestamp;P1;durP1;ratioP1;P2;durP2;ratioP2
30888;SDS011;51092;50.874;7.024;2023-04-02T00:01:12;10.98;;;9.75;;
30888;SDS011;51092;50.874;7.024;2023-04-02T00:02:30;9.10;;;8.20;;
30888;SDS011;51092;50.874;7.024;2023-04-02T00:05:25;9.55;;;8.30;;
30888;SDS011;51092;50.874;7.024;2023-04-02T00:06:31;18.08;;;12.20;;
30888;SDS011;51092;50.874;7.024;2023-04-02T00:07:34;20.13;;;13.57;;
30888;SDS011;51092;50.874;7.024;2023-04-02T00:08:40;29.23;;;15.25;;
30888;SDS011;51092;50.874;7.024;2023-04-02T00:09:42;10.30;;;9.30;;
30888;SDS011;51092;50.874;7.024;2023-04-02T00:10:46;24.92;;;15.15;;
30888;SDS011;51092;50.874;7.024;2023-04-02T00:11:51;11.50;;;10.13;;
30888;SDS011;51092;50.874;7.024;2023-04-02T00:12:58;17.73;;;11.75;;
30888;SDS011;51092;50.874;7.024;2023-04-02T00:14:02;19.80;;;13.30;;
30888;SDS011;51092;50.874;7.024;2023-04-02T00:15:15;22.65;;;12.98;;
30888;SDS011;51092;50.874;7.024;2023-04-02T00:16:22;17.85;;;11.88;;
30888;SDS011;51092;50.874;7.024;2023-04-02T00:17:27;30.30;;;16.92;;
30888;SDS011;51092;50.874;7.024;2023-04-02T00:18:28;30.58;;;16.38;;
30888;SDS011;51092;50.874;7.024;2023-04-02T00:19:34;10.98;;;9.88;;
30888;SDS011;51092;50.874;7.024;2023-04-02T00:20:39;16.98;;;10.55;;
30888;SDS011;51092;50.874;7.024;2023-04-02T00:21:44;20.55;;;13.63;;
30888;SDS011;51092;50.874;7.024;2023-04-02T00:22:47;19.60;;;12.82;;
30888;SDS011;51092;50.874;7.024;2023-04-02T00:23:52;24.02;;;15.05;;
30888;SDS011;51092;50.874;7.024;2023-04-02T00:24:54;20.20;;;14.27;;
30888;SDS011;51092;50.874;7.024;2023-04-02T00:25:59;24.15;;;14.82;;
30888;SDS011;51092;50.874;7.024;2023-04-02T00:27:01;24.75;;;15.57;;
30888;SDS011;51092;50.874;7.024;2023-04-02T00:28:08;24.10;;;15.18;;
30888;SDS011;51092;50.874;7.024;2023-04-02T00:29:33;19.58;;;13.27;;
30888;SDS011;51092;50.874;7.024;2023-04-02T00:30:46;25.88;;;16.80;;
30888;SDS011;51092;50.874;7.024;2023-04-02T00:31:53;23.10;;;15.38;;
30888;SDS011;51092;50.874;7.024;2023-04-02T00:33:01;35.65;;;16.65;;
30888;SDS011;51092;50.874;7.024;2023-04-02T00:34:13;23.30;;;14.73;;
30888;SDS011;51092;50.874;7.024;2023-04-02T00:35:18;27.13;;;16.42;;
30888;SDS011;51092;50.874;7.024;2023-04-02T00:36:26;22.92;;;15.70;;
30888;SDS011;51092;50.874;7.024;2023-04-02T00:37:33;33.38;;;17.13;;
30888;SDS011;51092;50.874;7.024;2023-04-02T00:38:51;27.75;;;16.02;;
30888;SDS011;51092;50.874;7.024;2023-04-02T00:39:59;22.05;;;14.63;;
30888;SDS011;51092;50.874;7.024;2023-04-02T00:41:12;33.70;;;17.17;;
30888;SDS011;51092;50.874;7.024;2023-04-02T00:42:16;25.42;;;15.65;;
30888;SDS011;51092;50.874;7.024;2023-04-02T00:43:21;26.30;;;14.70;;
30888;SDS011;51092;50.874;7.024;2023-04-02T00:44:25;32.22;;;16.35;;
30888;SDS011;51092;50.874;7.024;2023-04-02T00:45:34;29.95;;;16.05;;
30888;SDS011;51092;50.874;7.024;2023-04-02T00:46:41;23.67;;;14.27;;
30888;SDS011;51092;50.874;7.024;2023-04-02T00:47:48;25.63;;;14.98;;
30888;SDS011;51092;50.874;7.024;2023-04-02T00:48:51;11.75;;;10.55;;
30888;SDS011;51092;50.874;7.024;2023-04-02T00:50:00;17.08;;;13.13;;
30888;SDS011;51092;50.874;7.024;2023-04-02T00:51:08;21.75;;;14.07;;
30888;SDS011;51092;50.874;7.024;2023-04-02T00:52:16;17.85;;;13.20;;
30888;SDS011;51092;50.874;7.024;2023-04-02T00:53:23;29.30;;;15.68;;
30888;SDS011;51092;50.874;7.024;2023-04-02T00:54:28;19.33;;;14.02;;
30888;SDS011;51092;50.874;7.024;2023-04-02T00:55:34;22.73;;;13.60;;
30888;SDS011;51092;50.874;7.024;2023-04-02T00:56:39;21.95;;;15.07;;
30888;SDS011;51092;50.874;7.024;2023-04-02T00:57:43;16.25;;;12.52;;
30888;SDS011;51092;50.874;7.024;2023-04-02T00:58:49;21.85;;;13.93;;
30888;SDS011;51092;50.874;7.024;2023-04-02T00:59:55;14.98;;;10.90;;
30888;SDS011;51092;50.874;7.024;2023-04-02T01:00:58;15.02;;;11.82;;
30888;SDS011;51092;50.874;7.024;2023-04-02T01:02:19;24.45;;;15.68;;
30888;SDS011;51092;50.874;7.024;2023-04-02T01:03:27;23.15;;;15.07;;
30888;SDS011;51092;50.874;7.024;2023-04-02T01:04:34;24.80;;;15.80;;
30888;SDS011;51092;50.874;7.024;2023-04-02T01:05:36;22.70;;;14.98;;
30888;SDS011;51092;50.874;7.024;2023-04-02T01:06:40;23.50;;;15.07;;
30888;SDS011;51092;50.874;7.024;2023-04-02T01:07:50;23.77;;;14.18;;
30888;SDS011;51092;50.874;7.024;2023-04-02T01:10:33;26.98;;;16.35;;
30888;SDS011;51092;50.874;7.024;2023-04-02T01:13:22;18.40;;;13.45;;
30888;SDS011;51092;50.874;7.024;2023-04-02T01:14:34;18.08;;;13.68;;
30888;SDS011;51092;50.874;7.024;2023-04-02T01:15:46;27.70;;;16.90;;
30888;SDS011;51092;50.874;7.024;2023-04-02T01:16:54;18.63;;;13.90;;
30888;SDS011;51092;50.874;7.024;2023-04-02T01:18:10;22.25;;;15.70;;
30888;SDS011;51092;50.874;7.024;2023-04-02T01:19:39;22.35;;;14.93;;
30888;SDS011;51092;50.874;7.024;2023-04-02T01:21:13;23.02;;;15.15;;
30888;SDS011;51092;50.874;7.024;2023-04-02T01:22:22;25.38;;;15.07;;
30888;SDS011;51092;50.874;7.024;2023-04-02T01:23:37;27.05;;;16.92;;
30888;SDS011;51092;50.874;7.024;2023-04-02T01:24:54;22.88;;;15.45;;
30888;SDS011;51092;50.874;7.024;2023-04-02T01:25:58;21.15;;;14.63;;
30888;SDS011;51092;50.874;7.024;2023-04-02T01:27:12;21.35;;;14.80;;
30888;SDS011;51092;50.874;7.024;2023-04-02T01:28:21;28.83;;;16.52;;
30888;SDS011;51092;50.874;7.024;2023-04-02T01:29:28;27.63;;;17.45;;
30888;SDS011;51092;50.874;7.024;2023-04-02T01:30:33;26.38;;;16.15;;
30888;SDS011;51092;50.874;7.024;2023-04-02T01:31:35;29.63;;;16.60;;
30888;SDS011;51092;50.874;7.024;2023-04-02T01:32:39;29.13;;;17.77;;
30888;SDS011;51092;50.874;7.024;2023-04-02T01:33:43;28.92;;;16.67;;
30888;SDS011;51092;50.874;7.024;2023-04-02T01:34:48;27.30;;;16.55;;
30888;SDS011;51092;50.874;7.024;2023-04-02T01:35:52;32.55;;;18.73;;
30888;SDS011;51092;50.874;7.024;2023-04-02T01:37:04;27.45;;;16.77;;
30888;SDS011;51092;50.874;7.024;2023-04-02T01:38:15;30.92;;;17.90;;
30888;SDS011;51092;50.874;7.024;2023-04-02T01:39:26;29.30;;;17.80;;
30888;SDS011;51092;50.874;7.024;2023-04-02T01:40:40;30.52;;;17.83;;
30888;SDS011;51092;50.874;7.024;2023-04-02T01:41:47;28.70;;;17.70;;
30888;SDS011;51092;50.874;7.024;2023-04-02T01:42:56;30.92;;;19.92;;
30888;SDS011;51092;50.874;7.024;2023-04-02T01:44:05;46.08;;;21.02;;
30888;SDS011;51092;50.874;7.024;2023-04-02T01:45:14;34.70;;;19.67;;
30888;SDS011;51092;50.874;7.024;2023-04-02T01:46:24;40.20;;;21.00;;
30888;SDS011;51092;50.874;7.024;2023-04-02T01:47:28;44.33;;;21.95;;
30888;SDS011;51092;50.874;7.024;2023-04-02T01:48:30;50.78;;;25.90;;
30888;SDS011;51092;50.874;7.024;2023-04-02T01:49:33;59.22;;;26.08;;
30888;SDS011;51092;50.874;7.024;2023-04-02T01:50:37;56.55;;;25.95;;
30888;SDS011;51092;50.874;7.024;2023-04-02T01:51:42;56.20;;;26.00;;
30888;SDS011;51092;50.874;7.024;2023-04-02T01:52:45;32.53;;;20.45;;
30888;SDS011;51092;50.874;7.024;2023-04-02T01:53:51;29.35;;;17.58;;
30888;SDS011;51092;50.874;7.024;2023-04-02T01:54:53;35.85;;;18.13;;
30888;SDS011;51092;50.874;7.024;2023-04-02T01:56:02;26.58;;;16.27;;
30888;SDS011;51092;50.874;7.024;2023-04-02T01:57:04;18.42;;;13.45;;
30888;SDS011;51092;50.874;7.024;2023-04-02T01:58:09;13.18;;;11.77;;
30888;SDS011;51092;50.874;7.024;2023-04-02T01:59:14;12.70;;;10.57;;
30888;SDS011;51092;50.874;7.024;2023-04-02T02:00:21;14.68;;;10.40;;
30888;SDS011;51092;50.874;7.024;2023-04-02T02:01:23;13.80;;;10.75;;
30888;SDS011;51092;50.874;7.024;2023-04-02T02:02:29;10.07;;;9.00;;
30888;SDS011;51092;50.874;7.024;2023-04-02T02:03:30;16.40;;;10.70;;
30888;SDS011;51092;50.874;7.024;2023-04-02T02:04:36;10.48;;;8.50;;
30888;SDS011;51092;50.874;7.024;2023-04-02T02:05:38;9.07;;;7.60;;
30888;SDS011;51092;50.874;7.024;2023-04-02T02:06:42;9.02;;;8.13;;
30888;SDS011;51092;50.874;7.024;2023-04-02T02:07:43;10.77;;;7.65;;
30888;SDS011;51092;50.874;7.024;2023-04-02T02:08:47;10.40;;;7.88;;
30888;SDS011;51092;50.874;7.024;2023-04-02T02:09:50;12.80;;;8.68;;
30888;SDS011;51092;50.874;7.024;2023-04-02T02:10:53;9.68;;;7.60;;
30888;SDS011;51092;50.874;7.024;2023-04-02T02:11:55;9.35;;;8.27;;
30888;SDS011;51092;50.874;7.024;2023-04-02T02:12:58;10.38;;;7.85;;
30888;SDS011;51092;50.874;7.024;2023-04-02T02:14:01;12.40;;;8.52;;
30888;SDS011;51092;50.874;7.024;2023-04-02T02:15:11;8.93;;;7.70;;
30888;SDS011;51092;50.874;7.024;2023-04-02T02:16:16;17.30;;;9.43;;
30888;SDS011;51092;50.874;7.024;2023-04-02T02:17:21;12.15;;;8.90;;
30888;SDS011;51092;50.874;7.024;2023-04-02T02:18:27;16.85;;;9.35;;
30888;SDS011;51092;50.874;7.024;2023-04-02T02:19:31;11.63;;;9.57;;
30888;SDS011;51092;50.874;7.024;2023-04-02T02:20:36;10.40;;;8.20;;
30888;SDS011;51092;50.874;7.024;2023-04-02T02:21:39;10.48;;;9.15;;
30888;SDS011;51092;50.874;7.024;2023-04-02T02:22:43;19.13;;;9.73;;
30888;SDS011;51092;50.874;7.024;2023-04-02T02:23:48;10.95;;;9.05;;
30888;SDS011;51092;50.874;7.024;2023-04-02T02:24:49;12.40;;;9.32;;
30888;SDS011;51092;50.874;7.024;2023-04-02T02:25:53;11.25;;;8.68;;
30888;SDS011;51092;50.874;7.024;2023-04-02T02:26:59;11.05;;;8.35;;
30888;SDS011;51092;50.874;7.024;2023-04-02T02:28:12;10.88;;;9.00;;
30888;SDS011;51092;50.874;7.024;2023-04-02T02:29:18;10.90;;;8.30;;
30888;SDS011;51092;50.874;7.024;2023-04-02T02:30:24;9.65;;;8.70;;
30888;SDS011;51092;50.874;7.024;2023-04-02T02:31:32;10.15;;;8.75;;
30888;SDS011;51092;50.874;7.024;2023-04-02T02:32:38;9.63;;;8.65;;
30888;SDS011;51092;50.874;7.024;2023-04-02T02:33:45;9.20;;;7.90;;
30888;SDS011;51092;50.874;7.024;2023-04-02T02:34:53;8.90;;;8.00;;
30888;SDS011;51092;50.874;7.024;2023-04-02T02:36:00;10.38;;;8.65;;
30888;SDS011;51092;50.874;7.024;2023-04-02T02:37:06;8.15;;;7.32;;
30888;SDS011;51092;50.874;7.024;2023-04-02T02:39:47;8.73;;;7.93;;
30888;SDS011;51092;50.874;7.024;2023-04-02T02:40:53;10.00;;;8.70;;
30888;SDS011;51092;50.874;7.024;2023-04-02T02:41:59;8.98;;;7.93;;
30888;SDS011;51092;50.874;7.024;2023-04-02T02:43:06;9.65;;;8.35;;
30888;SDS011;51092;50.874;7.024;2023-04-02T02:44:13;10.40;;;8.43;;
30888;SDS011;51092;50.874;7.024;2023-04-02T02:45:19;8.90;;;7.97;;
30888;SDS011;51092;50.874;7.024;2023-04-02T02:46:25;8.77;;;7.78;;
30888;SDS011;51092;50.874;7.024;2023-04-02T02:47:30;8.52;;;7.63;;
30888;SDS011;51092;50.874;7.024;2023-04-02T02:48:36;8.73;;;7.82;;
30888;SDS011;51092;50.874;7.024;2023-04-02T02:49:41;10.90;;;9.27;;
30888;SDS011;51092;50.874;7.024;2023-04-02T02:50:45;9.82;;;8.93;;
30888;SDS011;51092;50.874;7.024;2023-04-02T02:51:48;8.80;;;7.90;;
30888;SDS011;51092;50.874;7.024;2023-04-02T02:52:54;8.95;;;8.15;;
30888;SDS011;51092;50.874;7.024;2023-04-02T02:53:59;9.80;;;7.97;;
30888;SDS011;51092;50.874;7.024;2023-04-02T02:55:05;9.57;;;8.63;;
30888;SDS011;51092;50.874;7.024;2023-04-02T02:56:10;7.75;;;7.05;;
30888;SDS011;51092;50.874;7.024;2023-04-02T02:57:13;8.80;;;8.07;;
30888;SDS011;51092;50.874;7.024;2023-04-02T02:58:18;8.93;;;8.02;;
30888;SDS011;51092;50.874;7.024;2023-04-02T02:59:25;12.68;;;8.93;;
30888;SDS011;51092;50.874;7.024;2023-04-02T03:00:28;9.85;;;8.70;;
30888;SDS011;51092;50.874;7.024;2023-04-02T03:01:31;9.15;;;8.35;;
30888;SDS011;51092;50.874;7.024;2023-04-02T03:02:35;8.75;;;7.93;;
30888;SDS011;51092;50.874;7.024;2023-04-02T03:03:40;8.85;;;8.05;;
30888;SDS011;51092;50.874;7.024;2023-04-02T03:04:44;9.32;;;8.43;;
30888;SDS011;51092;50.874;7.024;2023-04-02T03:05:48;8.43;;;7.63;;
30888;SDS011;51092;50.874;7.024;2023-04-02T03:06:52;8.57;;;7.75;;
30888;SDS011;51092;50.874;7.024;2023-04-02T03:07:57;8.15;;;7.40;;
30888;SDS011;51092;50.874;7.024;2023-04-02T03:09:02;9.68;;;8.77;;
30888;SDS011;51092;50.874;7.024;2023-04-02T03:10:14;9.15;;;8.25;;
30888;SDS011;51092;50.874;7.024;2023-04-02T03:11:22;8.10;;;7.40;;
30888;SDS011;51092;50.874;7.024;2023-04-02T03:12:38;9.65;;;7.75;;
30888;SDS011;51092;50.874;7.024;2023-04-02T03:13:47;9.77;;;8.70;;
30888;SDS011;51092;50.874;7.024;2023-04-02T03:14:52;8.35;;;7.43;;
30888;SDS011;51092;50.874;7.024;2023-04-02T03:16:01;9.43;;;8.45;;
30888;SDS011;51092;50.874;7.024;2023-04-02T03:17:08;11.13;;;8.88;;
30888;SDS011;51092;50.874;7.024;2023-04-02T03:18:18;10.25;;;9.20;;
30888;SDS011;51092;50.874;7.024;2023-04-02T03:19:29;8.65;;;7.85;;
30888;SDS011;51092;50.874;7.024;2023-04-02T03:20:36;8.27;;;7.57;;
30888;SDS011;51092;50.874;7.024;2023-04-02T03:21:41;9.93;;;8.93;;
30888;SDS011;51092;50.874;7.024;2023-04-02T03:22:50;10.90;;;9.60;;
30888;SDS011;51092;50.874;7.024;2023-04-02T03:23:56;8.23;;;7.38;;
30888;SDS011;51092;50.874;7.024;2023-04-02T03:25:02;9.43;;;8.63;;
30888;SDS011;51092;50.874;7.024;2023-04-02T03:26:13;9.05;;;8.25;;
30888;SDS011;51092;50.874;7.024;2023-04-02T03:27:19;10.35;;;9.27;;
30888;SDS011;51092;50.874;7.024;2023-04-02T03:28:25;9.88;;;8.88;;
30888;SDS011;51092;50.874;7.024;2023-04-02T03:29:31;9.35;;;8.35;;
30888;SDS011;51092;50.874;7.024;2023-04-02T03:30:36;9.93;;;8.93;;
30888;SDS011;51092;50.874;7.024;2023-04-02T03:31:43;10.02;;;9.13;;
30888;SDS011;51092;50.874;7.024;2023-04-02T03:32:48;9.07;;;8.18;;
30888;SDS011;51092;50.874;7.024;2023-04-02T03:33:57;9.27;;;8.30;;
30888;SDS011;51092;50.874;7.024;2023-04-02T03:35:02;9.05;;;8.25;;
30888;SDS011;51092;50.874;7.024;2023-04-02T03:36:13;10.15;;;8.35;;
30888;SDS011;51092;50.874;7.024;2023-04-02T03:37:21;8.75;;;7.95;;
30888;SDS011;51092;50.874;7.024;2023-04-02T03:38:26;8.98;;;8.13;;
30888;SDS011;51092;50.874;7.024;2023-04-02T03:39:32;10.05;;;7.88;;
30888;SDS011;51092;50.874;7.024;2023-04-02T03:40:38;8.85;;;8.05;;
30888;SDS011;51092;50.874;7.024;2023-04-02T03:41:45;9.60;;;8.70;;
30888;SDS011;51092;50.874;7.024;2023-04-02T03:42:52;9.27;;;8.35;;
30888;SDS011;51092;50.874;7.024;2023-04-02T03:43:57;8.85;;;8.05;;
30888;SDS011;51092;50.874;7.024;2023-04-02T03:45:02;9.43;;;8.52;;
30888;SDS011;51092;50.874;7.024;2023-04-02T03:46:15;10.55;;;9.60;;
30888;SDS011;51092;50.874;7.024;2023-04-02T03:47:26;9.82;;;8.93;;
30888;SDS011;51092;50.874;7.024;2023-04-02T03:48:37;10.73;;;8.55;;
30888;SDS011;51092;50.874;7.024;2023-04-02T03:49:44;10.48;;;9.48;;
30888;SDS011;51092;50.874;7.024;2023-04-02T03:50:50;9.05;;;8.30;;
30888;SDS011;51092;50.874;7.024;2023-04-02T03:51:58;10.55;;;9.55;;
30888;SDS011;51092;50.874;7.024;2023-04-02T03:53:05;11.65;;;10.50;;
30888;SDS011;51092;50.874;7.024;2023-04-02T03:54:09;10.48;;;9.48;;
30888;SDS011;51092;50.874;7.024;2023-04-02T03:55:16;10.15;;;9.20;;
30888;SDS011;51092;50.874;7.024;2023-04-02T03:56:24;11.23;;;10.13;;
30888;SDS011;51092;50.874;7.024;2023-04-02T03:57:30;10.35;;;9.35;;
30888;SDS011;51092;50.874;7.024;2023-04-02T03:58:37;11.40;;;10.30;;
30888;SDS011;51092;50.874;7.024;2023-04-02T03:59:44;10.80;;;9.70;;
30888;SDS011;51092;50.874;7.024;2023-04-02T04:00:51;10.35;;;9.35;;
30888;SDS011;51092;50.874;7.024;2023-04-02T04:01:58;11.40;;;10.30;;
30888;SDS011;51092;50.874;7.024;2023-04-02T04:03:04;13.27;;;11.57;;
30888;SDS011;51092;50.874;7.024;2023-04-02T04:04:12;11.40;;;10.30;;
30888;SDS011;51092;50.874;7.024;2023-04-02T04:05:20;12.43;;;10.68;;
30888;SDS011;51092;50.874;7.024;2023-04-02T04:06:25;11.35;;;10.23;;
30888;SDS011;51092;50.874;7.024;2023-04-02T04:07:30;11.75;;;10.55;;
30888;SDS011;51092;50.874;7.024;2023-04-02T04:08:36;11.38;;;10.38;;
30888;SDS011;51092;50.874;7.024;2023-04-02T04:09:44;10.82;;;9.73;;
30888;SDS011;51092;50.874;7.024;2023-04-02T04:10:49;12.73;;;11.52;;
30888;SDS011;51092;50.874;7.024;2023-04-02T04:12:06;11.63;;;10.50;;
30888;SDS011;51092;50.874;7.024;2023-04-02T04:13:11;12.07;;;10.98;;
30888;SDS011;51092;50.874;7.024;2023-04-02T04:14:16;11.60;;;10.50;;
30888;SDS011;51092;50.874;7.024;2023-04-02T04:15:21;11.10;;;10.00;;
30888;SDS011;51092;50.874;7.024;2023-04-02T04:16:27;11.80;;;10.60;;
30888;SDS011;51092;50.874;7.024;2023-04-02T04:17:38;12.25;;;11.05;;
30888;SDS011;51092;50.874;7.024;2023-04-02T04:18:52;11.60;;;10.40;;
30888;SDS011;51092;50.874;7.024;2023-04-02T04:20:06;12.88;;;11.68;;
30888;SDS011;51092;50.874;7.024;2023-04-02T04:21:18;12.52;;;10.65;;
30888;SDS011;51092;50.874;7.024;2023-04-02T04:22:29;12.73;;;11.52;;
30888;SDS011;51092;50.874;7.024;2023-04-02T04:23:31;13.90;;;12.48;;
30888;SDS011;51092;50.874;7.024;2023-04-02T04:24:36;14.15;;;12.55;;
30888;SDS011;51092;50.874;7.024;2023-04-02T04:25:39;14.18;;;12.70;;
30888;SDS011;51092;50.874;7.024;2023-04-02T04:26:42;14.95;;;13.15;;
30888;SDS011;51092;50.874;7.024;2023-04-02T04:27:55;13.60;;;12.30;;
30888;SDS011;51092;50.874;7.024;2023-04-02T04:29:08;14.38;;;13.00;;
30888;SDS011;51092;50.874;7.024;2023-04-02T04:30:19;15.20;;;13.60;;
30888;SDS011;51092;50.874;7.024;2023-04-02T04:31:26;15.50;;;14.10;;
30888;SDS011;51092;50.874;7.024;2023-04-02T04:32:33;14.98;;;13.40;;
30888;SDS011;51092;50.874;7.024;2023-04-02T04:33:39;15.88;;;14.27;;
30888;SDS011;51092;50.874;7.024;2023-04-02T04:34:44;15.82;;;14.20;;
30888;SDS011;51092;50.874;7.024;2023-04-02T04:35:54;15.93;;;14.10;;
30888;SDS011;51092;50.874;7.024;2023-04-02T04:36:59;14.95;;;13.55;;
30888;SDS011;51092;50.874;7.024;2023-04-02T04:38:09;16.10;;;14.40;;
30888;SDS011;51092;50.874;7.024;2023-04-02T04:39:16;18.20;;;15.35;;
30888;SDS011;51092;50.874;7.024;2023-04-02T04:40:23;17.15;;;15.52;;
30888;SDS011;51092;50.874;7.024;2023-04-02T04:41:30;17.17;;;15.35;;
30888;SDS011;51092;50.874;7.024;2023-04-02T04:42:36;15.80;;;14.23;;
30888;SDS011;51092;50.874;7.024;2023-04-02T04:43:41;16.90;;;15.10;;
30888;SDS011;51092;50.874;7.024;2023-04-02T04:44:50;16.98;;;15.25;;
30888;SDS011;51092;50.874;7.024;2023-04-02T04:45:58;17.52;;;15.65;;
30888;SDS011;51092;50.874;7.024;2023-04-02T04:47:04;16.80;;;15.00;;
30888;SDS011;51092;50.874;7.024;2023-04-02T04:48:12;15.52;;;13.70;;
30888;SDS011;51092;50.874;7.024;2023-04-02T04:49:21;18.00;;;16.10;;
30888;SDS011;51092;50.874;7.024;2023-04-02T04:50:27;16.20;;;14.70;;
30888;SDS011;51092;50.874;7.024;2023-04-02T04:51:34;14.70;;;13.35;;
30888;SDS011;51092;50.874;7.024;2023-04-02T04:52:42;14.43;;;12.93;;
30888;SDS011;51092;50.874;7.024;2023-04-02T04:53:45;14.60;;;13.25;;
30888;SDS011;51092;50.874;7.024;2023-04-02T04:54:48;14.05;;;12.68;;
30888;SDS011;51092;50.874;7.024;2023-04-02T04:55:51;15.18;;;13.57;;
30888;SDS011;51092;50.874;7.024;2023-04-02T04:56:55;14.30;;;12.93;;
30888;SDS011;51092;50.874;7.024;2023-04-02T04:58:02;14.02;;;12.63;;
30888;SDS011;51092;50.874;7.024;2023-04-02T04:59:11;13.20;;;12.02;;
30888;SDS011;51092;50.874;7.024;2023-04-02T05:00:18;13.30;;;11.93;;
30888;SDS011;51092;50.874;7.024;2023-04-02T05:01:26;14.40;;;13.00;;
30888;SDS011;51092;50.874;7.024;2023-04-02T05:02:35;12.23;;;11.13;;
30888;SDS011;51092;50.874;7.024;2023-04-02T05:03:44;12.60;;;11.50;;
30888;SDS011;51092;50.874;7.024;2023-04-02T05:04:51;12.38;;;11.27;;
30888;SDS011;51092;50.874;7.024;2023-04-02T05:05:53;12.95;;;11.65;;
30888;SDS011;51092;50.874;7.024;2023-04-02T05:07:04;12.90;;;11.68;;
30888;SDS011;51092;50.874;7.024;2023-04-02T05:08:12;12.30;;;11.20;;
30888;SDS011;51092;50.874;7.024;2023-04-02T05:09:17;11.20;;;10.07;;
30888;SDS011;51092;50.874;7.024;2023-04-02T05:10:26;11.63;;;10.57;;
30888;SDS011;51092;50.874;7.024;2023-04-02T05:11:33;12.18;;;11.02;;
30888;SDS011;51092;50.874;7.024;2023-04-02T05:12:41;12.77;;;11.65;;
30888;SDS011;51092;50.874;7.024;2023-04-02T05:13:49;12.75;;;11.50;;
30888;SDS011;51092;50.874;7.024;2023-04-02T05:14:55;11.93;;;10.85;;
30888;SDS011;51092;50.874;7.024;2023-04-02T05:16:01;12.40;;;11.20;;
30888;SDS011;51092;50.874;7.024;2023-04-02T05:17:12;11.02;;;10.02;;
30888;SDS011;51092;50.874;7.024;2023-04-02T05:18:21;10.63;;;9.63;;
30888;SDS011;51092;50.874;7.024;2023-04-02T05:19:27;11.05;;;9.98;;
30888;SDS011;51092;50.874;7.024;2023-04-02T05:20:36;11.38;;;9.27;;
30888;SDS011;51092;50.874;7.024;2023-04-02T05:21:46;11.82;;;10.65;;
30888;SDS011;51092;50.874;7.024;2023-04-02T05:22:52;11.25;;;10.25;;
30888;SDS011;51092;50.874;7.024;2023-04-02T05:24:02;11.07;;;9.98;;
30888;SDS011;51092;50.874;7.024;2023-04-02T05:25:27;11.32;;;10.27;;
30888;SDS011;51092;50.874;7.024;2023-04-02T05:26:31;10.48;;;9.57;;
30888;SDS011;51092;50.874;7.024;2023-04-02T05:27:38;9.77;;;8.88;;
30888;SDS011;51092;50.874;7.024;2023-04-02T05:28:47;10.10;;;9.07;;
30888;SDS011;51092;50.874;7.024;2023-04-02T05:29:55;11.73;;;9.35;;
30888;SDS011;51092;50.874;7.024;2023-04-02T05:31:01;11.77;;;10.77;;
30888;SDS011;51092;50.874;7.024;2023-04-02T05:32:07;10.23;;;9.23;;
30888;SDS011;51092;50.874;7.024;2023-04-02T05:33:16;10.20;;;8.98;;
30888;SDS011;51092;50.874;7.024;2023-04-02T05:34:22;9.45;;;8.57;;
30888;SDS011;51092;50.874;7.024;2023-04-02T05:35:29;9.18;;;8.35;;
30888;SDS011;51092;50.874;7.024;2023-04-02T05:36:32;11.02;;;10.00;;
30888;SDS011;51092;50.874;7.024;2023-04-02T05:37:37;9.65;;;8.85;;
30888;SDS011;51092;50.874;7.024;2023-04-02T05:38:42;9.95;;;9.05;;
30888;SDS011;51092;50.874;7.024;2023-04-02T05:39:50;9.02;;;8.15;;
30888;SDS011;51092;50.874;7.024;2023-04-02T05:40:57;9.60;;;8.73;;
30888;SDS011;51092;50.874;7.024;2023-04-02T05:42:03;9.07;;;8.27;;
30888;SDS011;51092;50.874;7.024;2023-04-02T05:43:06;10.32;;;9.25;;
30888;SDS011;51092;50.874;7.024;2023-04-02T05:44:13;9.80;;;8.90;;
30888;SDS011;51092;50.874;7.024;2023-04-02T05:45:26;10.23;;;9.38;;
30888;SDS011;51092;50.874;7.024;2023-04-02T05:46:33;11.13;;;9.30;;
30888;SDS011;51092;50.874;7.024;2023-04-02T05:47:37;10.52;;;9.48;;
30888;SDS011;51092;50.874;7.024;2023-04-02T05:48:43;10.35;;;9.35;;
30888;SDS011;51092;50.874;7.024;2023-04-02T05:49:51;11.10;;;9.98;;
30888;SDS011;51092;50.874;7.024;2023-04-02T05:51:13;10.60;;;9.70;;
30888;SDS011;51092;50.874;7.024;2023-04-02T05:52:19;10.73;;;9.68;;
30888;SDS011;51092;50.874;7.024;2023-04-02T05:53:23;10.73;;;9.73;;
30888;SDS011;51092;50.874;7.024;2023-04-02T05:54:30;10.27;;;9.30;;
30888;SDS011;51092;50.874;7.024;2023-04-02T05:55:39;11.05;;;10.05;;
30888;SDS011;51092;50.874;7.024;2023-04-02T05:56:45;11.20;;;10.13;;
30888;SDS011;51092;50.874;7.024;2023-04-02T05:57:53;9.60;;;8.65;;
30888;SDS011;51092;50.874;7.024;2023-04-02T05:58:59;10.73;;;9.68;;
30888;SDS011;51092;50.874;7.024;2023-04-02T06:00:12;10.07;;;9.18;;
30888;SDS011;51092;50.874;7.024;2023-04-02T06:01:20;10.80;;;9.70;;
30888;SDS011;51092;50.874;7.024;2023-04-02T06:02:29;11.02;;;9.98;;
30888;SDS011;51092;50.874;7.024;2023-04-02T06:03:37;10.35;;;9.25;;
30888;SDS011;51092;50.874;7.024;2023-04-02T06:04:47;12.77;;;10.18;;
30888;SDS011;51092;50.874;7.024;2023-04-02T06:05:54;10.65;;;9.73;;
30888;SDS011;51092;50.874;7.024;2023-04-02T06:07:03;11.25;;;10.25;;
30888;SDS011;51092;50.874;7.024;2023-04-02T06:08:10;9.95;;;8.95;;
30888;SDS011;51092;50.874;7.024;2023-04-02T06:09:16;9.95;;;9.05;;
30888;SDS011;51092;50.874;7.024;2023-04-02T06:10:23;9.93;;;8.93;;
30888;SDS011;51092;50.874;7.024;2023-04-02T06:11:30;10.10;;;9.20;;
30888;SDS011;51092;50.874;7.024;2023-04-02T06:12:38;10.90;;;10.00;;
30888;SDS011;51092;50.874;7.024;2023-04-02T06:13:43;11.00;;;10.00;;
30888;SDS011;51092;50.874;7.024;2023-04-02T06:14:45;11.02;;;10.05;;
30888;SDS011;51092;50.874;7.024;2023-04-02T06:15:48;9.52;;;8.63;;
30888;SDS011;51092;50.874;7.024;2023-04-02T06:16:50;10.63;;;9.63;;
30888;SDS011;51092;50.874;7.024;2023-04-02T06:17:58;9.73;;;8.93;;
30888;SDS011;51092;50.874;7.024;2023-04-02T06:19:00;11.48;;;10.38;;
30888;SDS011;51092;50.874;7.024;2023-04-02T06:20:06;10.98;;;9.98;;
30888;SDS011;51092;50.874;7.024;2023-04-02T06:21:14;10.63;;;9.65;;
30888;SDS011;51092;50.874;7.024;2023-04-02T06:22:21;10.60;;;9.70;;
30888;SDS011;51092;50.874;7.024;2023-04-02T06:23:27;9.45;;;8.55;;
30888;SDS011;51092;50.874;7.024;2023-04-02T06:24:34;9.90;;;9.02;;
30888;SDS011;51092;50.874;7.024;2023-04-02T06:25:40;10.77;;;9.77;;
30888;SDS011;51092;50.874;7.024;2023-04-02T06:26:48;9.60;;;8.73;;
30888;SDS011;51092;50.874;7.024;2023-04-02T06:27:54;11.13;;;10.10;;
30888;SDS011;51092;50.874;7.024;2023-04-02T06:28:59;10.60;;;9.50;;
30888;SDS011;51092;50.874;7.024;2023-04-02T06:30:05;9.60;;;8.70;;
30888;SDS011;51092;50.874;7.024;2023-04-02T06:31:23;11.00;;;10.00;;
30888;SDS011;51092;50.874;7.024;2023-04-02T06:32:28;11.23;;;10.23;;
30888;SDS011;51092;50.874;7.024;2023-04-02T06:33:30;11.45;;;10.32;;
30888;SDS011;51092;50.874;7.024;2023-04-02T06:34:33;11.32;;;10.23;;
30888;SDS011;51092;50.874;7.024;2023-04-02T06:35:39;12.90;;;11.70;;
30888;SDS011;51092;50.874;7.024;2023-04-02T06:36:42;13.32;;;11.68;;
30888;SDS011;51092;50.874;7.024;2023-04-02T06:37:45;12.88;;;11.68;;
30888;SDS011;51092;50.874;7.024;2023-04-02T06:38:49;14.23;;;12.80;;
30888;SDS011;51092;50.874;7.024;2023-04-02T06:39:55;13.18;;;11.63;;
30888;SDS011;51092;50.874;7.024;2023-04-02T06:41:00;15.18;;;13.68;;
30888;SDS011;51092;50.874;7.024;2023-04-02T06:42:09;14.32;;;13.02;;
30888;SDS011;51092;50.874;7.024;2023-04-02T06:43:15;14.63;;;13.13;;